Time;durP1;ratioP1;P1;durP2;ratioP2;P2;SDS_P1;SDS_P2;PMS_P1;PMS_P2;Temp;Humidity;BMP_temperature;BMP_pressure;BME280_temperature;BME280_humidity;BME280_pressure;Samples;Min_cycle;Max_cycle;Signal;HPM_P1;HPM_P2
2022/11/21 00:00:13;;;;;;;1.40;1.00;;;;;;;4.61;100.00;152546.16;4993545;28;20441;-77
2022/11/21 00:02:59;;;;;;;1.20;0.93;;;;;;;4.65;100.00;152556.50;4993681;28;20456;-77
2022/11/21 00:05:46;;;;;;;1.10;0.73;;;;;;;4.63;100.00;152551.34;4999939;28;20796;-77
2022/11/21 00:08:31;;;;;;;1.10;0.70;;;;;;;4.63;100.00;152552.59;4992367;28;20480;-77
2022/11/21 00:11:18;;;;;;;1.10;0.70;;;;;;;4.70;100.00;152570.66;4999149;28;20610;-77
2022/11/21 00:14:03;;;;;;;0.80;0.60;;;;;;;4.66;100.00;152560.34;4988687;28;20436;-77
2022/11/21 00:16:48;;;;;;;1.00;0.83;;;;;;;4.69;100.00;152568.06;4968037;28;20812;-77
2022/11/21 00:19:34;;;;;;;1.30;0.70;;;;;;;4.66;100.00;152560.34;4972330;28;20500;-77
2022/11/21 00:22:19;;;;;;;1.83;0.67;;;;;;;4.71;100.00;152571.97;4967501;28;20509;-77
2022/11/21 00:25:05;;;;;;;0.90;0.63;;;;;;;4.70;100.00;152570.66;4989101;28;20437;-77
2022/11/21 00:27:53;;;;;;;0.70;0.40;;;;;;;4.63;100.00;152552.59;4987834;28;20445;-77
2022/11/21 00:30:39;;;;;;;0.80;0.60;;;;;;;4.63;100.00;152552.59;5007078;28;20472;-76
2022/11/21 00:33:24;;;;;;;0.70;0.30;;;;;;;4.64;100.00;152553.91;4993097;28;20811;-77
2022/11/21 00:36:10;;;;;;;0.80;0.40;;;;;;;4.61;100.00;152547.47;4991706;28;21022;-77
2022/11/21 00:38:55;;;;;;;0.70;0.30;;;;;;;4.57;100.00;152535.88;4993650;28;20440;-77
2022/11/21 00:41:40;;;;;;;0.90;0.40;;;;;;;4.54;100.00;152528.13;4993500;28;20775;-77
2022/11/21 00:44:27;;;;;;;0.73;0.30;;;;;;;4.49;100.00;152516.56;4985204;28;20534;-77
2022/11/21 00:47:12;;;;;;;0.97;0.40;;;;;;;4.48;100.00;152512.66;4993937;28;20484;-77
2022/11/21 00:49:57;;;;;;;1.17;0.50;;;;;;;4.44;100.00;152502.38;4993077;28;20971;-76
2022/11/21 00:52:43;;;;;;;0.90;0.30;;;;;;;4.38;100.00;152486.91;4991891;28;20508;-77
2022/11/21 00:55:28;;;;;;;0.60;0.30;;;;;;;4.35;100.00;152480.47;4976183;28;20429;-76
2022/11/21 00:58:14;;;;;;;0.90;0.40;;;;;;;4.30;100.00;152468.91;4994072;28;20512;-77
2022/11/21 01:01:05;;;;;;;0.70;0.40;;;;;;;4.27;100.00;152461.16;4989799;28;21063;-77
2022/11/21 01:03:50;;;;;;;0.80;0.33;;;;;;;4.24;100.00;152453.44;4992929;28;20512;-76
2022/11/21 01:06:37;;;;;;;1.40;0.50;;;;;;;4.18;100.00;152436.72;4989735;28;20444;-77
2022/11/21 01:09:23;;;;;;;1.00;0.60;;;;;;;4.12;100.00;152421.25;4993259;28;20627;-76
2022/11/21 01:12:08;;;;;;;0.70;0.40;;;;;;;4.13;100.00;152423.84;4979239;28;20992;-77
2022/11/21 01:14:53;;;;;;;0.70;0.40;;;;;;;4.13;100.00;152423.84;4972679;28;20434;-77
2022/11/21 01:17:40;;;;;;;1.57;0.43;;;;;;;4.17;100.00;152434.13;4969924;28;20497;-77
2022/11/21 01:20:25;;;;;;;0.90;0.50;;;;;;;4.16;100.00;152432.81;4971767;28;20461;-77
2022/11/21 01:23:10;;;;;;;0.87;0.43;;;;;;;4.19;100.00;152439.25;4960566;28;20458;-77
2022/11/21 01:26:01;;;;;;;0.97;0.50;;;;;;;4.21;100.00;152444.41;4971526;28;20445;-76
2022/11/21 01:28:47;;;;;;;0.70;0.30;;;;;;;4.23;100.00;152449.59;4961743;28;20457;-77
2022/11/21 01:31:32;;;;;;;0.90;0.50;;;;;;;4.26;100.00;152457.31;4970929;28;20441;-77
2022/11/21 01:34:19;;;;;;;1.10;0.60;;;;;;;4.23;100.00;152449.59;4973478;28;20437;-77
2022/11/21 01:37:04;;;;;;;6.30;0.70;;;;;;;4.26;100.00;152457.31;4975577;28;20556;-77
2022/11/21 01:39:49;;;;;;;0.90;0.50;;;;;;;4.27;100.00;152459.88;4968942;28;20549;-77
2022/11/21 01:42:49;;;;;;;1.30;0.67;;;;;;;4.33;100.00;152475.34;4958649;28;20517;-77
2022/11/21 01:45:56;;;;;;;1.87;0.60;;;;;;;4.31;100.00;152471.44;4957709;28;21080;-77
2022/11/21 01:48:46;;;;;;;2.20;0.70;;;;;;;4.31;100.00;152471.44;4972429;28;20529;-77
2022/11/21 01:51:34;;;;;;;0.93;0.70;;;;;;;4.32;100.00;152472.75;4972746;28;20426;-77
2022/11/21 01:54:23;;;;;;;0.97;0.50;;;;;;;4.34;100.00;152477.94;4991456;28;20441;-77
2022/11/21 01:57:10;;;;;;;1.13;0.57;;;;;;;4.35;100.00;152480.47;4979961;28;20924;-77
2022/11/21 02:00:00;;;;;;;0.93;0.60;;;;;;;4.35;100.00;152479.19;4972589;28;20554;-77
2022/11/21 02:02:48;;;;;;;1.90;0.90;;;;;;;4.34;100.00;152476.63;4967792;28;20453;-77
2022/11/21 02:05:35;;;;;;;1.23;1.00;;;;;;;4.33;100.00;152475.34;4970993;28;20598;-77
2022/11/21 02:08:23;;;;;;;1.13;0.73;;;;;;;4.33;100.00;152475.34;4969637;28;20445;-77
2022/11/21 02:11:12;;;;;;;1.60;0.90;;;;;;;4.32;100.00;152474.03;4969232;28;20473;-77
2022/11/21 02:13:59;;;;;;;0.90;0.50;;;;;;;4.34;100.00;152477.94;4993751;28;20511;-77
2022/11/21 02:16:44;;;;;;;1.63;0.60;;;;;;;4.35;100.00;152480.47;4991633;28;20420;-77
2022/11/21 02:19:37;;;;;;;0.90;0.67;;;;;;;4.36;100.00;152483.06;4991633;28;20955;-77
2022/11/21 02:22:30;;;;;;;1.17;0.60;;;;;;;4.35;100.00;152480.47;4995156;28;20456;-77
2022/11/21 02:25:18;;;;;;;1.13;0.87;;;;;;;4.33;100.00;152475.34;4994308;28;20853;-77
2022/11/21 02:28:06;;;;;;;0.90;0.50;;;;;;;4.28;100.00;152462.47;5007494;28;20428;-77
2022/11/21 02:30:51;;;;;;;1.23;0.70;;;;;;;4.27;100.00;152461.16;4985736;28;20987;-77
2022/11/21 02:33:36;;;;;;;1.20;0.70;;;;;;;4.30;100.00;152467.59;4988810;28;20596;-77
2022/11/21 02:36:35;;;;;;;1.00;0.53;;;;;;;4.29;100.00;152465.00;4991777;28;20821;-77
2022/11/21 02:39:24;;;;;;;1.23;0.60;;;;;;;4.23;100.00;152450.88;4991570;28;20464;-77
2022/11/21 02:42:15;;;;;;;1.30;0.80;;;;;;;4.22;100.00;152447.00;4983946;28;20457;-77
2022/11/21 02:45:04;;;;;;;1.23;0.60;;;;;;;4.18;100.00;152437.97;4999358;28;20987;-76
2022/11/21 02:47:52;;;;;;;1.20;0.60;;;;;;;4.20;100.00;152441.84;4995781;28;20493;-77
2022/11/21 02:50:39;;;;;;;0.90;0.57;;;;;;;4.17;100.00;152434.13;4983733;28;20469;-77
2022/11/21 02:53:24;;;;;;;0.90;0.50;;;;;;;4.16;100.00;152431.53;4995707;28;20540;-77
2022/11/21 02:56:09;;;;;;;0.90;0.50;;;;;;;4.16;100.00;152431.53;4995698;28;20883;-77
2022/11/21 02:58:56;;;;;;;1.67;0.60;;;;;;;4.14;100.00;152426.38;4979287;28;20460;-77
2022/11/21 03:01:41;;;;;;;1.00;0.70;;;;;;;4.17;100.00;152434.13;4994034;28;20807;-77
2022/11/21 03:04:27;;;;;;;1.00;0.50;;;;;;;4.18;100.00;152436.72;5015689;28;20420;-77
2022/11/21 03:07:13;;;;;;;1.63;0.80;;;;;;;4.19;100.00;152439.25;5015098;28;20409;-77
2022/11/21 03:09:59;;;;;;;1.77;0.47;;;;;;;4.22;100.00;152447.00;4993368;28;20507;-77
2022/11/21 03:12:44;;;;;;;0.93;0.60;;;;;;;4.22;100.00;152447.00;4979362;28;20676;-77
2022/11/21 03:15:32;;;;;;;1.10;0.50;;;;;;;4.20;100.00;152443.16;4994137;28;20419;-77
2022/11/21 03:18:17;;;;;;;0.80;0.40;;;;;;;4.15;100.00;152428.97;4999287;28;20477;-77
2022/11/21 03:21:02;;;;;;;0.83;0.50;;;;;;;4.12;100.00;152422.53;4994957;28;20456;-77
2022/11/21 03:23:48;;;;;;;1.03;0.70;;;;;;;4.09;100.00;152413.50;4979195;28;20445;-76
2022/11/21 03:26:33;;;;;;;3.00;0.60;;;;;;;4.05;100.00;152403.22;4982242;28;20449;-77
2022/11/21 03:29:18;;;;;;;0.87;0.43;;;;;;;4.08;100.00;152410.91;4993462;28;20484;-77
2022/11/21 03:32:05;;;;;;;0.70;0.33;;;;;;;4.07;100.00;152408.38;4994644;28;20437;-77
2022/11/21 03:34:50;;;;;;;0.80;0.40;;;;;;;4.06;100.00;152407.06;5003682;28;20421;-77
2022/11/21 03:37:36;;;;;;;0.90;0.37;;;;;;;4.11;100.00;152418.66;4992321;28;20927;-76
2022/11/21 03:40:21;;;;;;;0.87;0.40;;;;;;;4.06;100.00;152405.78;4995085;28;20492;-77
2022/11/21 03:43:06;;;;;;;1.63;0.50;;;;;;;4.07;100.00;152408.38;4978967;28;20492;-77
2022/11/21 03:45:51;;;;;;;0.70;0.40;;;;;;;4.09;100.00;152413.50;4990773;28;20448;-77
2022/11/21 03:48:38;;;;;;;1.77;0.50;;;;;;;4.10;100.00;152416.09;4993828;28;20457;-77
2022/11/21 03:51:24;;;;;;;0.73;0.40;;;;;;;4.09;100.00;152414.81;4995270;28;20464;-77
2022/11/21 03:54:09;;;;;;;0.70;0.40;;;;;;;4.13;100.00;152423.84;4976128;28;20445;-77
2022/11/21 03:56:55;;;;;;;1.07;0.50;;;;;;;4.12;100.00;152422.53;4996563;28;20476;-77
2022/11/21 03:59:40;;;;;;;1.00;0.50;;;;;;;4.16;100.00;152432.81;4993535;28;20493;-77
2022/11/21 04:02:25;;;;;;;0.73;0.40;;;;;;;4.16;100.00;152431.53;4986676;28;20458;-77
2022/11/21 04:05:12;;;;;;;1.23;0.60;;;;;;;4.19;100.00;152439.25;5000663;28;20453;-77
2022/11/21 04:07:57;;;;;;;0.87;0.40;;;;;;;4.16;100.00;152431.53;4979815;28;20452;-76
2022/11/21 04:10:46;;;;;;;1.67;0.47;;;;;;;4.18;100.00;152436.72;4995137;28;20481;-77
2022/11/21 04:13:32;;;;;;;1.23;0.80;;;;;;;4.17;100.00;152434.13;4981994;28;20474;-77
2022/11/21 04:16:17;;;;;;;1.70;1.00;;;;;;;4.18;100.00;152437.97;4992649;28;20444;-77
2022/11/21 04:19:02;;;;;;;0.80;0.60;;;;;;;4.19;100.00;152439.25;4994152;28;20448;-77
2022/11/21 04:22:18;;;;;;;0.97;0.53;;;;;;;4.20;100.00;152441.84;4997265;28;20457;-77
2022/11/21 04:25:04;;;;;;;0.87;0.50;;;;;;;4.21;100.00;152444.41;4989725;28;20429;-77
2022/11/21 04:27:49;;;;;;;1.10;0.73;;;;;;;4.22;100.00;152447.00;5003850;28;20440;-77
2022/11/21 04:30:35;;;;;;;1.10;0.50;;;;;;;4.22;100.00;152447.00;4999133;28;20472;-77
2022/11/21 04:33:20;;;;;;;1.23;0.90;;;;;;;4.23;100.00;152450.88;4976020;28;20796;-77
2022/11/21 04:36:06;;;;;;;1.00;0.60;;;;;;;4.25;100.00;152454.72;4988659;28;20429;-77
2022/11/21 04:38:53;;;;;;;1.00;0.60;;;;;;;4.23;100.00;152450.88;4991378;28;20464;-77
2022/11/21 04:41:38;;;;;;;1.17;0.87;;;;;;;4.23;100.00;152449.59;4992728;28;20425;-77
2022/11/21 04:44:24;;;;;;;1.37;0.70;;;;;;;4.23;100.00;152449.59;4981575;28;20432;-77
2022/11/21 04:47:09;;;;;;;1.00;0.60;;;;;;;4.26;100.00;152457.31;4992998;28;20441;-77
2022/11/21 04:49:55;;;;;;;1.30;0.83;;;;;;;4.28;100.00;152462.47;4992035;28;20523;-77
2022/11/21 04:52:41;;;;;;;1.57;0.50;;;;;;;4.26;100.00;152457.31;4993204;28;20437;-77
2022/11/21 04:55:30;;;;;;;1.50;0.70;;;;;;;4.29;100.00;152465.00;4975013;28;20906;-77
2022/11/21 04:58:15;;;;;;;1.00;0.60;;;;;;;4.27;100.00;152459.88;4994331;28;20480;-77
2022/11/21 05:01:06;;;;;;;1.27;0.63;;;;;;;4.26;100.00;152458.56;4990691;28;20460;-77
2022/11/21 05:03:52;;;;;;;2.03;0.70;;;;;;;4.28;100.00;152463.75;4984739;28;20461;-77
2022/11/21 05:06:38;;;;;;;2.00;0.60;;;;;;;4.25;100.00;152454.72;4990748;28;20441;-77
2022/11/21 05:09:23;;;;;;;1.00;0.73;;;;;;;4.22;100.00;152448.28;4992449;28;20527;-77
2022/11/21 05:15:14;;;;;;;1.10;0.80;;;;;;;4.23;100.00;152449.59;4965279;28;20477;-77
2022/11/21 05:17:59;;;;;;;1.30;0.70;;;;;;;4.18;100.00;152436.72;4962825;28;20529;-77
2022/11/21 05:20:44;;;;;;;1.17;0.90;;;;;;;4.26;100.00;152457.31;4963974;28;20510;-77
2022/11/21 05:23:30;;;;;;;1.00;0.60;;;;;;;4.18;100.00;152436.72;4973532;28;20594;-77
2022/11/21 05:26:15;;;;;;;0.93;0.60;;;;;;;4.15;100.00;152428.97;4951541;28;20474;-77
2022/11/21 05:29:02;;;;;;;1.40;0.90;;;;;;;4.18;100.00;152436.72;4970125;28;20446;-77
2022/11/21 05:31:47;;;;;;;1.20;0.83;;;;;;;4.14;100.00;152426.38;4973296;28;20980;-77
2022/11/21 05:34:33;;;;;;;2.13;0.97;;;;;;;4.09;100.00;152413.50;4970992;28;20841;-77
2022/11/21 05:37:18;;;;;;;2.20;0.97;;;;;;;4.00;100.00;152391.59;4936534;29;20420;-77
2022/11/21 05:40:05;;;;;;;1.33;0.60;;;;;;;3.99;100.00;152387.75;4960684;28;20438;-77
2022/11/21 05:45:54;;;;;;;1.00;0.77;;;;;;;4.03;100.00;152398.03;4972704;28;20869;-77
2022/11/21 05:48:40;;;;;;;1.73;0.80;;;;;;;4.03;100.00;152398.03;4972817;28;20442;-77
2022/11/21 05:51:25;;;;;;;1.20;0.70;;;;;;;4.03;100.00;152398.03;4972657;28;20516;-77
2022/11/21 05:54:12;;;;;;;0.90;0.70;;;;;;;4.05;100.00;152403.22;4951482;28;20856;-77
2022/11/21 05:56:58;;;;;;;1.00;0.70;;;;;;;4.07;100.00;152408.38;4972472;28;20812;-76
2022/11/21 05:59:43;;;;;;;1.30;1.00;;;;;;;4.10;100.00;152416.09;4962375;28;20485;-77
2022/11/21 06:05:33;;;;;;;1.60;0.93;;;;;;;4.13;100.00;152423.84;4972169;28;20629;-77
2022/11/21 06:08:18;;;;;;;1.43;0.67;;;;;;;4.15;100.00;152430.28;4968553;28;20465;-77
2022/11/21 06:11:04;;;;;;;1.53;0.90;;;;;;;4.19;100.00;152439.25;4983556;28;20462;-77
2022/11/21 06:13:49;;;;;;;2.40;1.00;;;;;;;4.21;100.00;152444.41;4969304;28;20460;-78
2022/11/21 06:16:35;;;;;;;1.40;1.07;;;;;;;4.22;100.00;152447.00;4963650;28;20449;-77
2022/11/21 06:19:22;;;;;;;2.20;1.80;;;;;;;4.23;100.00;152449.59;4980006;28;20473;-77
2022/11/21 06:22:07;;;;;;;2.50;1.87;;;;;;;4.24;100.00;152452.13;4977544;28;20442;-77
2022/11/21 06:24:52;;;;;;;1.40;1.10;;;;;;;4.25;100.00;152454.72;4984898;28;20601;-77
2022/11/21 06:27:37;;;;;;;2.30;1.00;;;;;;;4.26;100.00;152457.31;4975844;28;20501;-77
2022/11/21 06:30:22;;;;;;;1.80;1.10;;;;;;;4.20;100.00;152443.16;4975853;28;20445;-77
2022/11/21 06:33:08;;;;;;;1.00;0.80;;;;;;;4.18;100.00;152437.97;4973123;28;20461;-77
2022/11/21 06:35:55;;;;;;;2.53;1.10;;;;;;;4.19;100.00;152440.56;4979987;28;20444;-77
2022/11/21 06:38:40;;;;;;;1.70;1.10;;;;;;;4.16;100.00;152431.53;4956427;29;20443;-77
2022/11/21 06:41:29;;;;;;;2.23;0.83;;;;;;;4.15;100.00;152428.97;4963194;28;20497;-77
2022/11/21 06:44:15;;;;;;;1.93;1.07;;;;;;;4.13;100.00;152423.84;4971092;28;20466;-77
2022/11/21 06:47:00;;;;;;;1.67;0.87;;;;;;;4.14;100.00;152426.38;4974856;28;20442;-77
2022/11/21 06:49:45;;;;;;;1.43;0.87;;;;;;;4.14;100.00;152427.69;4961345;28;20874;-77
2022/11/21 06:52:34;;;;;;;1.50;1.10;;;;;;;4.15;100.00;152428.97;4975724;28;20496;-77
2022/11/21 06:55:20;;;;;;;1.50;0.90;;;;;;;4.15;100.00;152430.28;4973389;28;20940;-77
2022/11/21 06:58:05;;;;;;;1.80;1.03;;;;;;;4.15;100.00;152428.97;4978119;28;20824;-77
2022/11/21 07:00:51;;;;;;;1.50;1.20;;;;;;;4.14;100.00;152426.38;4977419;28;20815;-77
2022/11/21 07:03:36;;;;;;;1.17;0.70;;;;;;;4.13;100.00;152423.84;4973632;28;20465;-77
2022/11/21 07:06:22;;;;;;;1.27;1.07;;;;;;;4.11;100.00;152418.66;4976343;28;20452;-77
2022/11/21 07:09:08;;;;;;;1.27;1.10;;;;;;;4.21;100.00;152444.41;4995425;28;20441;-76
2022/11/21 07:11:53;;;;;;;1.63;0.80;;;;;;;4.23;100.00;152450.88;4980780;28;20575;-77
2022/11/21 07:14:38;;;;;;;1.53;1.00;;;;;;;4.25;100.00;152456.03;4982595;28;20421;-77
2022/11/21 07:17:23;;;;;;;1.40;1.17;;;;;;;4.42;100.00;152497.25;4982992;28;20449;-77
2022/11/21 07:20:10;;;;;;;1.37;1.20;;;;;;;4.38;100.00;152488.22;4995376;28;20422;-77
2022/11/21 07:22:55;;;;;;;2.10;1.50;;;;;;;4.23;100.00;152449.59;4994918;28;20575;-77
2022/11/21 07:25:43;;;;;;;2.13;1.40;;;;;;;4.13;100.00;152423.84;4994090;28;20445;-77
2022/11/21 07:28:28;;;;;;;1.80;1.30;;;;;;;4.18;100.00;152436.72;4994851;28;20453;-78
2022/11/21 07:31:13;;;;;;;1.90;1.30;;;;;;;4.27;100.00;152459.88;4990113;28;20469;-77
2022/11/21 07:33:59;;;;;;;3.90;1.23;;;;;;;4.43;100.00;152501.09;4996272;28;20548;-77
2022/11/21 07:36:44;;;;;;;2.13;1.20;;;;;;;4.44;100.00;152502.38;4993417;28;20410;-77
2022/11/21 07:39:29;;;;;;;1.40;1.10;;;;;;;4.51;100.00;152521.69;4993480;28;20448;-77
2022/11/21 07:42:16;;;;;;;1.60;1.50;;;;;;;4.64;100.00;152555.19;4987894;28;20793;-77
2022/11/21 07:45:01;;;;;;;1.73;1.50;;;;;;;4.62;100.00;152548.75;4974593;28;20406;-77
2022/11/21 07:47:47;;;;;;;2.80;1.27;;;;;;;4.58;100.00;152538.47;4964358;28;20803;-77
2022/11/21 07:50:32;;;;;;;1.40;1.20;;;;;;;4.51;100.00;152521.69;4990745;28;20508;-78
2022/11/21 07:53:18;;;;;;;1.83;1.40;;;;;;;4.52;100.00;152523.00;4975667;28;20595;-77
2022/11/21 07:56:03;;;;;;;2.37;1.40;;;;;;;4.58;100.00;152539.72;4984310;28;20467;-77
2022/11/21 07:58:51;;;;;;;1.93;1.50;;;;;;;4.64;100.00;152555.19;4993055;28;20472;-77
2022/11/21 08:01:37;;;;;;;2.20;1.30;;;;;;;4.73;100.00;152578.41;4992519;28;20896;-77
2022/11/21 08:04:22;;;;;;;2.10;1.07;;;;;;;4.74;100.00;152580.97;4994782;28;20468;-77
2022/11/21 08:07:10;;;;;;;2.40;1.33;;;;;;;4.75;100.00;152583.56;4993707;28;20951;-77
2022/11/21 08:09:55;;;;;;;2.47;1.40;;;;;;;4.83;100.00;152604.16;4984120;28;20770;-77
2022/11/21 08:12:40;;;;;;;3.53;1.40;;;;;;;4.86;100.00;152610.63;4979720;28;21076;-77
2022/11/21 08:15:27;;;;;;;1.30;1.17;;;;;;;4.89;100.00;152619.66;4986762;28;20872;-77
2022/11/21 08:18:13;;;;;;;2.87;1.30;;;;;;;4.92;100.00;152626.09;4975062;28;20428;-77
2022/11/21 08:21:01;;;;;;;1.77;1.40;;;;;;;4.92;100.00;152627.34;4985416;28;20457;-77
2022/11/21 08:23:46;;;;;;;2.10;1.50;;;;;;;4.99;100.00;152644.13;4980174;28;20464;-77
2022/11/21 08:26:32;;;;;;;2.27;1.77;;;;;;;5.06;100.00;152662.16;4979605;28;20944;-77
2022/11/21 08:29:17;;;;;;;1.60;1.20;;;;;;;5.12;100.00;152676.31;4993357;28;20445;-77
2022/11/21 08:32:04;;;;;;;3.63;1.50;;;;;;;5.16;100.00;152686.66;4992490;28;20476;-77
2022/11/21 08:34:49;;;;;;;2.97;1.90;;;;;;;5.16;100.00;152686.66;4992467;28;20448;-76
2022/11/21 08:37:35;;;;;;;3.93;1.70;;;;;;;5.16;100.00;152686.66;4990900;28;20436;-76
2022/11/21 08:40:20;;;;;;;2.20;1.70;;;;;;;5.21;100.00;152699.56;4992018;28;20814;-77
2022/11/21 08:43:07;;;;;;;2.40;1.43;;;;;;;5.26;100.00;152712.44;4990737;28;20460;-77
2022/11/21 08:45:52;;;;;;;2.13;1.67;;;;;;;5.27;100.00;152716.28;4992671;28;20491;-77
2022/11/21 08:48:39;;;;;;;1.83;1.40;;;;;;;5.31;100.00;152725.31;4993372;28;20967;-77
2022/11/21 08:51:24;;;;;;;2.43;1.50;;;;;;;5.35;100.00;152735.63;4992034;28;21022;-77
2022/11/21 08:54:09;;;;;;;2.00;1.60;;;;;;;5.44;100.00;152758.84;4988264;28;20434;-77
2022/11/21 08:56:55;;;;;;;4.17;1.63;;;;;;;5.44;100.00;152758.84;4976907;28;20424;-77
2022/11/21 08:59:40;;;;;;;5.23;1.97;;;;;;;5.44;100.00;152758.84;5010652;28;20907;-77
2022/11/21 09:02:25;;;;;;;3.77;2.33;;;;;;;5.48;100.00;152770.44;4992107;28;20817;-77
2022/11/21 09:05:12;;;;;;;2.50;2.23;;;;;;;5.52;100.00;152779.47;4992860;28;20436;-77
2022/11/21 09:07:58;;;;;;;2.63;1.47;;;;;;;5.54;100.00;152784.63;4978279;28;20539;-77
2022/11/21 09:10:43;;;;;;;3.37;1.90;;;;;;;5.58;100.00;152794.97;4986219;28;20544;-77
2022/11/21 09:13:28;;;;;;;5.53;2.10;;;;;;;5.66;100.00;152815.59;4985369;28;20539;-77
2022/11/21 09:19:16;;;;;;;3.80;1.60;;;;;;;5.71;100.00;152828.47;4976308;28;20489;-77
2022/11/21 09:22:03;;;;;;;3.00;1.70;;;;;;;5.76;100.00;152840.06;4978136;28;20537;-77
2022/11/21 09:24:48;;;;;;;2.70;1.33;;;;;;;5.78;100.00;152845.22;4991179;28;20461;-77
2022/11/21 09:27:33;;;;;;;5.90;1.80;;;;;;;5.81;100.00;152852.97;4987008;28;20452;-77
2022/11/21 09:30:19;;;;;;;2.53;1.57;;;;;;;5.91;100.00;152880.09;4992821;28;20424;-77
2022/11/21 09:33:06;;;;;;;3.20;1.63;;;;;;;5.94;100.00;152887.84;4988265;28;20480;-77
2022/11/21 09:35:51;;;;;;;3.60;1.37;;;;;;;5.95;100.00;152890.44;4996679;28;20473;-77
2022/11/21 09:38:37;;;;;;;2.73;1.60;;;;;;;5.98;100.00;152896.91;4993999;28;21006;-77
2022/11/21 09:44:44;;;;;;;2.43;1.37;;;;;;;6.09;100.00;152926.53;4990327;28;20979;-77
2022/11/21 09:47:31;;;;;;;5.17;1.77;;;;;;;6.09;100.00;152926.53;4990403;28;20460;-77
2022/11/21 09:50:26;;;;;;;2.63;1.53;;;;;;;6.14;100.00;152939.44;4979319;28;20459;-77
2022/11/21 09:53:13;;;;;;;1.47;1.20;;;;;;;6.27;100.00;152970.41;4993438;28;20477;-77
2022/11/21 09:56:04;;;;;;;3.20;1.37;;;;;;;6.31;100.00;152982.03;4993821;28;20444;-77
2022/11/21 09:58:58;;;;;;;5.27;2.27;;;;;;;6.36;100.00;152993.63;4991880;28;20425;-77
2022/11/21 10:01:43;;;;;;;3.53;1.40;;;;;;;6.35;100.00;152991.06;4991963;28;20553;-77
2022/11/21 10:04:28;;;;;;;2.20;1.40;;;;;;;6.34;100.00;152988.47;4990911;28;20920;-77
2022/11/21 10:07:18;;;;;;;3.30;1.50;;;;;;;6.46;100.00;153019.47;4990704;28;20424;-77
2022/11/21 10:10:17;;;;;;;1.50;1.20;;;;;;;6.60;100.00;153055.56;4992099;28;20425;-77
2022/11/21 10:13:15;;;;;;;2.83;2.00;;;;;;;6.54;100.00;153041.38;4974320;28;20493;-77
2022/11/21 10:16:05;;;;;;;3.07;1.30;;;;;;;6.48;100.00;153024.63;4970244;28;20517;-77
2022/11/21 10:19:04;;;;;;;2.73;1.33;;;;;;;6.47;100.00;153022.00;4972846;28;20442;-77
2022/11/21 10:22:08;;;;;;;2.83;1.30;;;;;;;6.51;100.00;153032.38;4955360;28;20426;-77
2022/11/21 10:24:56;;;;;;;3.70;1.50;;;;;;;6.56;100.00;153046.56;4970071;28;20790;-77
2022/11/21 10:27:46;;;;;;;2.20;1.20;;;;;;;6.64;100.00;153065.91;4974441;28;20482;-77
2022/11/21 10:30:33;;;;;;;2.97;1.30;;;;;;;6.60;100.00;153055.56;4956648;28;20796;-77
2022/11/21 10:33:25;;;;;;;5.27;1.53;;;;;;;6.64;100.00;153065.91;4973436;28;20963;-77
2022/11/21 10:36:20;;;;;;;2.50;1.20;;;;;;;6.66;100.00;153072.38;4958134;28;20577;-77
2022/11/21 10:39:13;;;;;;;3.27;1.10;;;;;;;6.77;100.00;153099.47;4970460;28;20784;-76
2022/11/21 10:42:02;;;;;;;2.93;1.03;;;;;;;6.81;100.00;153109.78;4970271;28;20445;-78
2022/11/21 10:47:53;;;;;;;2.73;1.20;;;;;;;7.06;100.00;153173.03;4970526;28;20492;-78
2022/11/21 10:50:47;;;;;;;4.60;1.67;;;;;;;7.16;100.00;153200.16;4971616;28;21016;-78
2022/11/21 10:56:36;;;;;;;2.53;1.20;;;;;;;7.25;100.00;153223.38;4974152;28;20799;-78
2022/11/21 10:59:25;;;;;;;4.70;1.10;;;;;;;7.25;100.00;153223.38;4980814;28;20932;-78
2022/11/21 11:02:23;;;;;;;1.63;1.20;;;;;;;7.21;100.00;153213.06;4951458;28;20885;-78
2022/11/21 11:05:20;;;;;;;2.50;1.10;;;;;;;7.20;100.00;153210.47;4981993;28;20441;-77
2022/11/21 11:08:07;;;;;;;3.87;1.60;;;;;;;7.21;100.00;153211.78;4961985;28;20454;-77
2022/11/21 11:11:02;;;;;;;2.73;1.40;;;;;;;7.26;100.00;153225.97;4973170;28;20524;-77
2022/11/21 11:13:56;;;;;;;3.73;1.40;;;;;;;7.30;100.00;153236.34;4959633;28;20991;-77
2022/11/21 11:16:44;;;;;;;2.13;1.13;;;;;;;7.28;100.00;153229.88;4991925;28;20452;-77
2022/11/21 11:19:29;;;;;;;3.33;1.40;;;;;;;7.28;99.68;153229.88;4973684;28;20557;-77
2022/11/21 11:22:26;;;;;;;2.27;1.00;;;;;;;7.34;98.49;153245.34;4974353;28;20430;-77
2022/11/21 11:25:12;;;;;;;3.50;1.13;;;;;;;7.31;98.56;153237.59;4973701;28;20550;-77
2022/11/21 11:27:59;;;;;;;3.03;1.40;;;;;;;7.37;97.61;153253.09;4968908;28;20446;-77
2022/11/21 11:30:45;;;;;;;1.47;0.87;;;;;;;7.31;94.74;153237.59;4974718;28;20442;-77
2022/11/21 11:33:33;;;;;;;1.93;0.80;;;;;;;7.22;94.82;153215.66;4974713;28;20477;-77
2022/11/21 11:36:43;;;;;;;2.70;1.30;;;;;;;7.26;97.46;153225.97;4973054;28;20513;-77
2022/11/21 11:39:38;;;;;;;7.23;1.37;;;;;;;7.26;96.30;153224.66;4974661;28;20561;-77
2022/11/21 11:49:04;;;;;;;3.53;1.40;;;;;;;7.11;93.50;153187.25;4974130;28;20434;-77
2022/11/21 11:51:53;;;;;;;1.83;1.20;;;;;;;7.11;94.78;153187.25;4973653;28;20988;-77
2022/11/21 11:54:47;;;;;;;4.07;1.20;;;;;;;7.09;94.44;153180.81;4972820;28;20469;-77
2022/11/21 11:57:33;;;;;;;1.57;1.00;;;;;;;7.10;95.22;153183.34;4973719;28;20553;-77
2022/11/21 12:00:25;;;;;;;2.60;1.03;;;;;;;7.17;94.90;153202.75;4974225;28;20508;-77
2022/11/21 12:03:15;;;;;;;2.40;1.50;;;;;;;7.24;95.93;153220.81;4965967;28;20624;-77
2022/11/21 12:06:04;;;;;;;4.40;1.03;;;;;;;7.34;96.81;153246.63;4974850;28;20949;-77
2022/11/21 12:08:53;;;;;;;3.30;1.20;;;;;;;7.32;95.41;153241.47;4973588;28;20941;-77
2022/11/21 12:18:11;;;;;;;3.63;1.63;;;;;;;7.15;98.71;153197.56;4994635;28;20435;-77
2022/11/21 12:21:00;;;;;;;3.27;1.17;;;;;;;7.11;94.14;153185.94;5003392;28;20451;-77
2022/11/21 12:23:47;;;;;;;2.57;1.10;;;;;;;7.07;95.45;153176.91;4990300;28;21010;-77
2022/11/21 12:26:45;;;;;;;6.40;1.40;;;;;;;7.16;93.88;153198.84;4994053;28;20899;-77
2022/11/21 12:29:39;;;;;;;3.30;1.37;;;;;;;7.21;93.98;153213.06;4993940;28;20441;-77
2022/11/21 12:32:34;;;;;;;4.93;1.23;;;;;;;7.27;92.63;153228.56;4992729;28;20473;-77
2022/11/21 12:35:29;;;;;;;2.47;1.10;;;;;;;7.33;96.83;153242.78;4992635;28;20542;-77
2022/11/21 12:38:36;;;;;;;3.00;1.20;;;;;;;7.31;95.45;153237.59;4990146;28;20504;-77
2022/11/21 12:44:52;;;;;;;2.83;1.20;;;;;;;7.31;99.21;153238.88;4993037;28;20950;-77
2022/11/21 12:54:32;;;;;;;2.40;1.73;;;;;;;7.54;97.66;153295.72;4987518;28;20975;-77
2022/11/21 12:57:18;;;;;;;1.90;1.33;;;;;;;7.58;96.77;153306.03;4988445;28;20444;-77
2022/11/21 13:00:14;;;;;;;1.80;1.10;;;;;;;7.59;100.00;153309.94;4985055;28;20579;-77
2022/11/21 13:03:23;;;;;;;2.00;1.00;;;;;;;7.60;100.00;153311.25;4984032;28;20469;-76
2022/11/21 13:06:15;;;;;;;3.87;1.40;;;;;;;7.63;96.44;153318.94;4988103;28;20488;-76
2022/11/21 13:09:02;;;;;;;2.00;1.40;;;;;;;7.64;92.98;153321.56;4992798;28;20441;-77
2022/11/21 13:12:00;;;;;;;6.50;2.90;;;;;;;7.67;92.82;153329.31;5001808;28;20478;-77
2022/11/21 13:14:49;;;;;;;3.60;1.00;;;;;;;7.69;86.25;153335.75;4979081;28;20818;-76
2022/11/21 13:17:43;;;;;;;3.07;1.37;;;;;;;7.69;86.69;153334.47;4989130;28;20479;-76
2022/11/21 13:20:30;;;;;;;2.27;1.20;;;;;;;7.76;89.84;153353.84;4976793;28;20968;-77
2022/11/21 13:23:39;;;;;;;1.70;0.90;;;;;;;7.88;90.33;153383.56;4983163;28;20444;-76
2022/11/21 13:26:47;;;;;;;3.50;1.00;;;;;;;7.97;90.56;153408.09;4987757;28;20553;-76
2022/11/21 13:29:32;;;;;;;4.50;1.23;;;;;;;7.97;87.46;153406.78;4996803;28;20443;-76
2022/11/21 13:32:38;;;;;;;2.37;0.93;;;;;;;8.04;86.63;153424.91;4985204;28;20976;-76
2022/11/21 13:35:59;;;;;;;2.10;0.77;;;;;;;8.06;84.55;153430.06;4991050;28;20452;-76
2022/11/21 13:39:32;;;;;;;2.10;0.93;;;;;;;8.10;82.67;153440.38;4975163;28;20481;-76
2022/11/21 13:45:42;;;;;;;3.60;0.90;;;;;;;8.09;84.56;153437.81;4983451;28;20525;-78
2022/11/21 13:49:00;;;;;;;1.87;0.80;;;;;;;8.10;85.41;153439.13;4988153;28;20531;-77
2022/11/21 13:51:53;;;;;;;3.27;0.90;;;;;;;8.02;84.71;153419.75;4987868;28;20449;-85